Time;durP1;ratioP1;P1;durP2;ratioP2;P2;SDS_P1;SDS_P2;PMS_P1;PMS_P2;Temp;Humidity;BMP_temperature;BMP_pressure;BME280_temperature;BME280_humidity;BME280_pressure;Samples;Min_cycle;Max_cycle;Signal;HPM_P1;HPM_P2
2021/06/10 12:08:22;;;;;;;;;;;23.80;99.90;;;;;;5560129;23;19925;-96
2021/06/10 12:11:04;;;;;;;;;;;22.90;99.90;;;;;;5035658;28;19998;-96
2021/06/10 12:13:51;;;;;;;;;;;22.30;99.90;;;;;;5033145;28;20367;-96
2021/06/10 12:16:43;;;;;;;;;;;21.70;99.90;;;;;;5052479;28;19925;-96
2021/06/10 12:19:33;;;;;;;;;;;21.40;99.90;;;;;;5048453;28;19929;-96
2021/06/10 12:22:04;;;;;;;;;;;21.20;99.90;;;;;;5017330;28;19971;-96
2021/06/10 12:24:43;;;;;;;;;;;21.00;99.90;;;;;;5031528;28;19925;-97
2021/06/10 12:27:46;;;;;;;;;;;20.70;99.90;;;;;;5024532;28;19988;-96
2021/06/10 12:31:32;;;;;;;;;;;20.90;99.90;;;;;;5055173;28;19963;-96
2021/06/10 12:34:43;;;;;;;;;;;21.40;99.90;;;;;;4944844;29;19910;-96
2021/06/10 12:38:05;;;;;;;;;;;21.80;99.90;;;;;;4937147;29;19931;-96
2021/06/10 17:04:05;;;;;;;;;;;21.50;96.20;;;;;;4970802;28;19930;-95
2021/06/10 17:07:19;;;;;;;;;;;20.90;97.00;;;;;;5030650;23;19917;-96
2021/06/10 17:10:12;;;;;;;;;;;20.30;97.80;;;;;;4987407;23;19954;-95
2021/06/10 17:57:50;;;;;;;;;;;17.50;99.90;;;;;;5196832;23;19909;-96
2021/06/10 18:00:17;;;;;;;;;;;17.30;99.90;;;;;;5012573;28;19910;-96
2021/06/10 18:02:44;;;;;;;;;;;17.30;99.90;;;;;;4985720;28;19930;-96
2021/06/10 18:05:13;;;;;;;;;;;17.30;99.90;;;;;;4984375;28;20329;-91
2021/06/10 18:07:43;;;;;;;;;;;17.20;99.90;;;;;;4999259;28;19926;-94
2021/06/10 18:53:06;;;;;;;;;;;16.60;99.90;;;;;;3224497;23;20107;-96
2021/06/10 18:55:34;;;;;;;;;;;16.30;99.90;;;;;;4940366;29;19926;-96
2021/06/10 18:58:01;;;;;;;;;;;16.00;99.90;;;;;;4961470;29;19927;-95
2021/06/10 19:00:28;;;;;;;;;;;15.70;99.90;;;;;;4946386;29;19934;-96
2021/06/10 19:02:55;;;;;;;;;;;15.50;99.90;;;;;;4944828;28;19934;-95
2021/06/10 19:05:23;;;;;;;;;;;15.40;99.90;;;;;;4943882;29;19926;-95
2021/06/10 19:07:50;;;;;;;;;;;15.20;99.90;;;;;;4943547;29;19934;-95
2021/06/10 19:10:17;;;;;;;;;;;15.10;99.90;;;;;;4943009;29;19931;-95
2021/06/10 19:12:44;;;;;;;;;;;15.00;99.90;;;;;;4944004;29;19956;-95
2021/06/10 19:15:11;;;;;;;;;;;14.90;99.90;;;;;;4943755;29;19926;-94
2021/06/10 19:17:40;;;;;;;;;;;14.80;99.90;;;;;;4943729;29;19933;-96
2021/06/10 19:20:08;;;;;;;;;;;14.80;99.90;;;;;;4946011;29;19937;-96
2021/06/10 19:25:33;;;;;;;;;;;14.60;99.90;;;;;;4941831;28;19933;-95
2021/06/10 19:28:00;;;;;;;;;;;14.60;99.90;;;;;;4924070;29;19937;-95
2021/06/10 19:30:27;;;;;;;;;;;14.50;99.90;;;;;;4925043;29;19926;-94
2021/06/10 19:32:58;;;;;;;;;;;14.50;99.90;;;;;;4942270;29;19935;-94
2021/06/10 19:35:26;;;;;;;;;;;14.40;99.90;;;;;;4929134;28;20270;-95
2021/06/10 19:37:55;;;;;;;;;;;14.40;99.90;;;;;;4927201;29;19927;-95
2021/06/10 19:40:23;;;;;;;;;;;14.30;99.90;;;;;;4925296;29;19934;-96
2021/06/10 21:11:15;;;;;;;;;;;14.20;99.90;;;;;;5837900;22;19926;-96
2021/06/10 22:07:29;;;;;;;;;;;13.90;99.90;;;;;;5902887;23;19926;-96
